Time;durP1;ratioP1;P1;durP2;ratioP2;P2;SDS_P1;SDS_P2;PMS_P1;PMS_P2;Temp;Humidity;BMP_temperature;BMP_pressure;BME280_temperature;BME280_humidity;BME280_pressure;Samples;Min_cycle;Max_cycle;Signal;HPM_P1;HPM_P2
2023/04/05 00:09:27;;;;;;;7.30;4.13;;;;;;;2.97;39.35;101331.91;21098427;28;20287;-82
2023/04/05 00:19:32;;;;;;;7.20;4.57;;;;;;;2.64;40.50;101330.19;21103528;28;20209;-81
2023/04/05 00:29:35;;;;;;;6.50;4.73;;;;;;;2.45;40.57;101325.00;21101801;28;20279;-82
2023/04/05 00:39:40;;;;;;;5.90;3.73;;;;;;;2.33;40.62;101315.97;21118428;28;20195;-82
2023/04/05 00:49:42;;;;;;;6.97;4.13;;;;;;;2.22;41.38;101308.59;21111699;28;20315;-82
2023/04/05 00:59:44;;;;;;;6.77;4.10;;;;;;;1.97;42.37;101308.31;21096165;28;20910;-81
2023/04/05 01:09:56;;;;;;;5.67;3.80;;;;;;;1.79;42.60;101308.66;21126004;27;20221;-80
2023/04/05 01:19:59;;;;;;;5.50;3.77;;;;;;;1.38;43.56;101305.38;21116097;28;20258;-81
2023/04/05 01:30:09;;;;;;;4.70;4.20;;;;;;;1.55;43.18;101286.66;21093361;28;20263;-81
2023/04/05 01:40:12;;;;;;;6.97;4.37;;;;;;;1.21;44.03;101296.22;21074782;28;20573;-81
2023/04/05 01:50:15;;;;;;;5.67;4.67;;;;;;;1.20;44.17;101283.41;21059758;28;20270;-81
2023/04/05 02:00:18;;;;;;;7.70;4.70;;;;;;;1.48;43.64;101274.91;21116783;28;20243;-82
2023/04/05 02:10:23;;;;;;;7.10;4.73;;;;;;;1.33;43.93;101267.19;21103984;28;20688;-81
2023/04/05 02:20:25;;;;;;;4.37;3.93;;;;;;;1.39;44.48;101265.28;21111936;28;20214;-81
2023/04/05 02:30:28;;;;;;;6.83;4.63;;;;;;;1.30;44.08;101264.06;21074373;28;20214;-82
2023/04/05 02:40:31;;;;;;;6.60;4.40;;;;;;;1.00;44.75;101268.06;21116606;28;20191;-81
2023/04/05 02:50:33;;;;;;;5.30;4.27;;;;;;;0.82;44.47;101265.56;21116458;28;20267;-81
2023/04/05 03:00:36;;;;;;;7.73;4.30;;;;;;;0.78;45.28;101269.09;21121743;28;20227;-83
2023/04/05 03:10:43;;;;;;;7.77;4.40;;;;;;;0.79;44.81;101266.06;21095434;28;20272;-80
2023/04/05 03:20:55;;;;;;;8.73;4.70;;;;;;;0.45;45.72;101267.19;21077565;28;20212;-80
2023/04/05 03:30:59;;;;;;;7.47;4.17;;;;;;;0.69;45.24;101254.81;21099222;28;20247;-80
2023/04/05 03:41:02;;;;;;;7.33;4.70;;;;;;;0.53;45.66;101266.75;21075788;28;20202;-80
2023/04/05 03:51:05;;;;;;;6.00;4.50;;;;;;;0.52;45.41;101254.81;21066799;28;20221;-80
2023/04/05 04:01:07;;;;;;;6.90;4.70;;;;;;;0.26;46.17;101256.31;21099114;27;20514;-81
2023/04/05 04:11:10;;;;;;;6.37;4.80;;;;;;;0.23;46.39;101245.69;21103802;28;20198;-80
2023/04/05 04:21:16;;;;;;;6.33;4.70;;;;;;;0.47;45.92;101240.84;21074139;28;20667;-82
2023/04/05 04:31:32;;;;;;;10.13;5.50;;;;;;;0.11;46.37;101246.84;21092890;27;20243;-82
2023/04/05 04:42:10;;;;;;;8.27;5.23;;;;;;;-0.22;47.82;101259.59;21057339;28;20211;-82
2023/04/05 04:52:28;;;;;;;9.90;5.60;;;;;;;-0.34;47.81;101244.06;21050398;28;20256;-81
2023/04/05 05:02:30;;;;;;;7.00;5.20;;;;;;;0.06;47.30;101244.84;21049519;28;20279;-81
2023/04/05 05:12:32;;;;;;;6.23;4.53;;;;;;;0.13;46.66;101242.75;21053264;28;20195;-81
2023/04/05 05:22:39;;;;;;;8.30;4.80;;;;;;;-0.23;47.75;101248.72;21058477;28;20218;-81
2023/04/05 05:32:42;;;;;;;7.80;5.17;;;;;;;-0.03;48.31;101249.09;21062176;28;20198;-82
2023/04/05 05:42:44;;;;;;;9.13;4.87;;;;;;;0.18;46.53;101253.97;21061146;28;20279;-82
2023/04/05 05:52:46;;;;;;;8.23;4.97;;;;;;;0.16;47.03;101244.19;21044442;28;20199;-81
2023/04/05 06:02:48;;;;;;;8.53;5.77;;;;;;;0.32;46.64;101238.66;21056390;28;20539;-82
2023/04/05 06:12:51;;;;;;;6.30;5.30;;;;;;;0.55;45.72;101242.34;21045266;28;20186;-82
2023/04/05 06:22:53;;;;;;;11.03;6.00;;;;;;;1.01;44.91;101236.38;21086573;27;20630;-82
2023/04/05 06:32:56;;;;;;;9.13;5.60;;;;;;;1.43;43.74;101233.09;21070072;28;20216;-83
2023/04/05 06:42:58;;;;;;;8.50;4.80;;;;;;;1.82;42.28;101225.47;21057016;28;20210;-81
2023/04/05 06:53:04;;;;;;;5.93;4.27;;;;;;;2.03;39.98;101227.38;21053234;28;20248;-83
2023/04/05 07:03:07;;;;;;;5.73;3.63;;;;;;;2.41;39.66;101223.53;21054423;28;20303;-83
2023/04/05 07:13:09;;;;;;;5.50;3.73;;;;;;;2.91;39.64;101205.53;21023266;28;20210;-82
2023/04/05 07:23:12;;;;;;;5.00;3.63;;;;;;;3.16;37.48;101214.03;21038919;28;20218;-81
2023/04/05 07:33:14;;;;;;;6.33;3.70;;;;;;;3.32;38.39;101208.53;21061174;28;20195;-83
2023/04/05 07:43:17;;;;;;;7.00;3.43;;;;;;;3.50;37.09;101202.44;21068414;28;20507;-84
2023/04/05 07:53:20;;;;;;;3.23;2.93;;;;;;;3.38;36.38;101205.47;21061048;28;20587;-84
2023/04/05 08:03:22;;;;;;;3.83;2.80;;;;;;;3.76;32.88;101200.56;21076819;28;20255;-83
2023/04/05 08:13:24;;;;;;;5.53;2.90;;;;;;;4.11;34.63;101209.00;21059837;28;20240;-83
2023/04/05 08:23:26;;;;;;;5.67;2.80;;;;;;;4.38;33.16;101203.19;21061829;28;20259;-82
2023/04/05 08:33:29;;;;;;;2.90;2.60;;;;;;;4.16;33.57;101188.66;21060682;28;20187;-82
2023/04/05 08:43:55;;;;;;;3.47;2.10;;;;;;;4.65;31.06;101179.69;21062824;28;20909;-82
2023/04/05 08:53:58;;;;;;;5.10;3.23;;;;;;;5.06;30.39;101181.28;21060962;28;20255;-82
2023/04/05 09:04:04;;;;;;;5.53;3.37;;;;;;;5.10;31.55;101165.59;21105229;28;20226;-80
2023/04/05 09:14:08;;;;;;;7.30;3.97;;;;;;;5.77;30.52;101166.97;21084333;28;20216;-81
2023/04/05 09:24:11;;;;;;;8.43;4.00;;;;;;;5.04;31.39;101163.91;21058041;28;20210;-83
2023/04/05 09:34:19;;;;;;;5.60;3.40;;;;;;;5.36;29.04;101163.53;21073629;28;20475;-80
2023/04/05 09:44:23;;;;;;;4.87;4.03;;;;;;;6.18;29.44;101147.06;21060551;28;20226;-80
2023/04/05 09:54:27;;;;;;;4.87;3.30;;;;;;;5.79;29.59;101156.31;21041705;28;20244;-81
2023/04/05 10:04:41;;;;;;;5.67;3.63;;;;;;;5.70;29.13;101151.59;21045655;28;20248;-81
2023/04/05 10:14:43;;;;;;;7.27;3.83;;;;;;;5.59;29.71;101136.81;21047480;28;20252;-81
2023/04/05 10:24:53;;;;;;;6.30;3.90;;;;;;;5.72;28.73;101133.38;21055519;28;20210;-82
2023/04/05 10:35:06;;;;;;;8.70;3.87;;;;;;;5.67;30.78;101127.78;21036811;28;20386;-81
2023/04/05 10:45:14;;;;;;;4.20;3.10;;;;;;;6.07;27.93;101117.41;21039024;28;20273;-81
2023/04/05 10:55:16;;;;;;;5.17;3.40;;;;;;;6.97;27.13;101104.44;21053538;27;20258;-82
2023/04/05 11:05:33;;;;;;;3.70;3.40;;;;;;;6.54;26.87;101094.28;21050175;28;20226;-84
2023/04/05 11:15:35;;;;;;;3.20;2.93;;;;;;;6.83;26.32;101092.31;21047058;28;20646;-83
2023/04/05 11:25:41;;;;;;;4.57;3.40;;;;;;;6.56;27.56;101086.44;21266564;22;20228;-81
2023/04/05 11:35:59;;;;;;;4.93;3.20;;;;;;;7.81;26.97;101073.81;20708559;28;20742;-83
2023/04/05 11:46:04;;;;;;;4.63;3.50;;;;;;;7.17;26.08;101064.06;20713152;28;20216;-81
2023/04/05 11:56:09;;;;;;;3.70;2.85;;;;;;;7.73;25.98;101052.03;20719044;28;20495;-82
2023/04/05 12:06:11;;;;;;;5.70;3.37;;;;;;;7.27;26.91;101043.41;20706229;28;20294;-82
2023/04/05 12:16:13;;;;;;;5.63;3.67;;;;;;;8.35;25.04;101024.50;20728476;28;20193;-85
2023/04/05 12:26:17;;;;;;;2.97;2.50;;;;;;;8.40;24.67;101018.75;20735793;28;20264;-84
2023/04/05 12:36:19;;;;;;;3.60;2.53;;;;;;;7.03;24.43;101021.84;20751747;28;20221;-83
2023/04/05 12:46:22;;;;;;;7.30;3.60;;;;;;;7.78;24.42;101013.41;20733710;28;20339;-82
2023/04/05 12:56:28;;;;;;;3.37;2.73;;;;;;;8.63;23.13;100998.06;20727802;28;20498;-83
2023/04/05 13:06:30;;;;;;;4.73;2.87;;;;;;;8.60;23.55;100992.19;20725381;28;20217;-84
2023/04/05 13:16:33;;;;;;;4.03;3.17;;;;;;;8.83;23.41;100975.09;20738797;28;20193;-84
2023/04/05 13:26:35;;;;;;;4.90;3.00;;;;;;;8.44;23.52;100969.16;20735878;28;20228;-82
2023/04/05 13:36:37;;;;;;;4.28;3.28;;;;;;;8.28;22.25;100960.19;20746534;28;20570;-82
2023/04/05 13:46:40;;;;;;;3.75;2.30;;;;;;;8.62;22.33;100942.06;20720984;28;20271;-83
2023/04/05 13:56:42;;;;;;;4.30;2.60;;;;;;;8.33;22.89;100943.22;20733426;28;20572;-82
2023/04/05 14:06:45;;;;;;;5.73;2.57;;;;;;;8.68;21.57;100930.38;20737183;28;20263;-83
2023/04/05 14:16:47;;;;;;;3.77;2.87;;;;;;;8.97;22.57;100915.94;20732286;28;20232;-83
2023/04/05 14:26:50;;;;;;;3.57;2.70;;;;;;;8.90;21.42;100911.91;20739343;28;20229;-82
2023/04/05 14:36:52;;;;;;;3.93;2.83;;;;;;;7.31;23.95;100920.91;20735731;28;20672;-81
2023/04/05 14:46:55;;;;;;;3.20;2.67;;;;;;;9.21;21.55;100882.66;20728411;28;20216;-83
2023/04/05 14:56:57;;;;;;;6.10;2.93;;;;;;;9.75;21.18;100874.25;20728472;28;20185;-83
2023/04/05 15:07:01;;;;;;;3.70;2.87;;;;;;;8.50;24.00;100875.06;20716550;28;20272;-84
2023/04/05 15:17:04;;;;;;;5.33;2.43;;;;;;;9.18;23.34;100865.56;20720977;28;20644;-83
2023/04/05 15:27:06;;;;;;;4.35;2.50;;;;;;;8.72;24.26;100858.25;20730363;28;20225;-83
2023/04/05 15:37:09;;;;;;;3.30;2.70;;;;;;;8.70;21.09;100842.81;20725655;28;20193;-83
2023/04/05 15:47:12;;;;;;;4.17;2.90;;;;;;;8.79;22.78;100838.94;20723369;28;20532;-81
2023/04/05 15:57:18;;;;;;;3.38;3.08;;;;;;;8.79;23.49;100833.28;20715125;28;20202;-83
2023/04/05 16:07:20;;;;;;;3.72;2.50;;;;;;;8.77;23.55;100831.97;20715182;28;20602;-82
2023/04/05 16:17:24;;;;;;;3.30;2.65;;;;;;;9.22;21.28;100824.34;20725792;28;20213;-82
2023/04/05 16:27:26;;;;;;;3.63;2.57;;;;;;;8.96;24.66;100824.16;20743883;28;20245;-81
2023/04/05 16:37:31;;;;;;;4.70;2.93;;;;;;;8.46;22.45;100817.75;20724052;28;20306;-83
2023/04/05 16:47:33;;;;;;;5.40;3.20;;;;;;;8.78;22.78;100816.75;20721379;28;20276;-84
2023/04/05 16:57:36;;;;;;;4.17;2.70;;;;;;;8.71;23.04;100821.97;20689514;28;20278;-83
2023/04/05 17:07:40;;;;;;;4.50;3.37;;;;;;;8.61;23.14;100816.56;20716236;28;20303;-81
2023/04/05 17:17:42;;;;;;;5.77;2.60;;;;;;;8.99;23.64;100815.09;20716937;28;20228;-83
2023/04/05 17:27:45;;;;;;;3.17;2.88;;;;;;;8.85;27.00;100822.75;20730666;28;20213;-83
2023/04/05 17:37:47;;;;;;;3.57;2.90;;;;;;;8.17;24.77;100820.09;20719455;28;20206;-86
2023/04/05 17:47:50;;;;;;;5.93;4.30;;;;;;;8.29;24.06;100811.94;20747865;28;20614;-83
2023/04/05 17:57:52;;;;;;;5.17;3.27;;;;;;;8.37;23.82;100822.47;20724845;28;20189;-83
2023/04/05 18:07:54;;;;;;;5.03;3.00;;;;;;;7.68;25.98;100827.28;20709635;28;20817;-82
2023/04/05 18:17:57;;;;;;;5.07;3.23;;;;;;;7.36;26.58;100837.38;20733977;28;20255;-82
2023/04/05 18:27:59;;;;;;;3.78;3.38;;;;;;;6.95;26.54;100842.91;20732521;28;20337;-82
2023/04/05 18:38:10;;;;;;;7.03;3.87;;;;;;;7.25;27.31;100847.13;20731592;28;20228;-84
2023/04/05 18:48:12;;;;;;;5.70;4.13;;;;;;;6.89;28.19;100855.31;20735869;28;20263;-84
2023/04/05 18:58:15;;;;;;;5.90;3.65;;;;;;;6.67;28.27;100863.53;20717280;28;20648;-84
2023/04/05 19:08:18;;;;;;;10.00;4.20;;;;;;;6.66;28.96;100870.28;20739657;28;20293;-83
2023/04/05 19:18:24;;;;;;;7.00;4.07;;;;;;;6.22;30.33;100873.38;20736655;28;20221;-81
2023/04/05 19:28:26;;;;;;;7.17;4.07;;;;;;;6.07;30.04;100882.81;20734470;28;20217;-83
2023/04/05 19:38:29;;;;;;;4.85;3.90;;;;;;;6.22;30.16;100881.78;20728199;28;21330;-83
2023/04/05 19:48:36;;;;;;;6.60;4.10;;;;;;;5.72;31.63;100881.25;20707751;28;20214;-83
2023/04/05 19:58:41;;;;;;;6.60;4.30;;;;;;;5.68;31.39;100868.97;20710941;28;20508;-81
2023/04/05 20:08:46;;;;;;;6.00;4.93;;;;;;;5.47;32.51;100862.75;20740602;28;20229;-81
2023/04/05 20:18:49;;;;;;;8.73;5.30;;;;;;;5.11;32.95;100869.78;20702193;28;20322;-82
2023/04/05 20:28:52;;;;;;;10.87;5.87;;;;;;;4.79;33.74;100873.09;20727682;28;20210;-81
2023/04/05 20:38:55;;;;;;;10.30;6.90;;;;;;;4.81;34.45;100865.25;20726858;28;20799;-83
2023/04/05 20:48:57;;;;;;;12.07;8.83;;;;;;;4.81;34.61;100865.25;20705007;28;20229;-83
2023/04/05 20:58:59;;;;;;;11.43;6.57;;;;;;;4.32;35.28;100863.31;20736425;28;20185;-84
2023/04/05 21:09:02;;;;;;;11.80;8.00;;;;;;;4.59;35.35;100846.94;20726459;28;20220;-83
2023/04/05 21:19:04;;;;;;;9.17;7.87;;;;;;;4.34;35.68;100844.31;20727873;28;20229;-83
2023/04/05 21:29:07;;;;;;;13.40;10.73;;;;;;;4.06;37.38;100836.59;20724087;28;20220;-83
2023/04/05 21:39:10;;;;;;;17.57;11.17;;;;;;;4.00;37.31;100837.72;20737473;28;20185;-82
2023/04/05 21:49:12;;;;;;;13.80;10.20;;;;;;;3.88;37.51;100838.88;20738682;28;20560;-83
2023/04/05 21:59:15;;;;;;;15.97;9.93;;;;;;;3.62;37.64;100842.03;20726879;28;20220;-83
2023/04/05 22:09:17;;;;;;;14.90;9.90;;;;;;;3.58;37.67;100833.41;20719968;28;20228;-83
2023/04/05 22:19:20;;;;;;;13.73;8.47;;;;;;;3.19;38.57;100826.81;20731535;28;20221;-82
2023/04/05 22:29:23;;;;;;;11.13;7.00;;;;;;;3.36;38.15;100810.56;20749925;28;20221;-83
2023/04/05 22:39:26;;;;;;;11.83;6.53;;;;;;;3.25;38.15;100815.34;20735055;28;20194;-82
2023/04/05 22:49:28;;;;;;;8.50;6.83;;;;;;;3.03;38.40;100806.44;20739854;28;20213;-82
2023/04/05 22:59:30;;;;;;;7.37;5.80;;;;;;;3.11;38.34;100794.72;20718643;28;20198;-82
2023/04/05 23:09:33;;;;;;;9.73;6.00;;;;;;;2.85;39.04;100793.06;20725700;28;20302;-83
2023/04/05 23:19:35;;;;;;;8.50;5.93;;;;;;;2.77;38.62;100784.16;20732934;28;20271;-82
2023/04/05 23:29:38;;;;;;;9.43;6.40;;;;;;;2.55;39.36;100788.31;20755694;28;20278;-81
2023/04/05 23:39:40;;;;;;;8.40;6.10;;;;;;;2.32;40.12;100784.91;20732286;28;20542;-84
2023/04/05 23:49:43;;;;;;;9.07;6.57;;;;;;;2.09;40.00;100774.28;20720373;28;20221;-84
2023/04/05 23:59:46;;;;;;;8.37;5.90;;;;;;;2.51;39.13;100764.88;20716764;28;20217;-84
